createdAt,value
2023-02-11T00:01:28.616Z,97218.55
2023-02-11T00:03:58.634Z,97213.73
2023-02-11T00:06:28.880Z,97213.13
2023-02-11T00:08:57.431Z,97213.64
2023-02-11T00:11:30.409Z,97214.29
2023-02-11T00:14:05.000Z,97216.47
2023-02-11T00:16:33.427Z,97214.77
2023-02-11T00:19:03.379Z,97212.20
2023-02-11T00:21:31.490Z,97211.45
2023-02-11T00:24:02.318Z,97208.38
2023-02-11T00:26:35.614Z,97206.91
2023-02-11T00:29:05.335Z,97205.70
2023-02-11T00:31:34.560Z,97205.27
2023-02-11T00:34:02.936Z,97206.02
2023-02-11T00:36:31.655Z,97200.80
2023-02-11T00:39:01.130Z,97192.51
2023-02-11T00:41:29.940Z,97190.00
2023-02-11T00:44:01.815Z,97190.80
2023-02-11T00:46:30.112Z,97186.43
2023-02-11T00:48:58.371Z,97183.34
2023-02-11T00:51:28.739Z,97180.34
2023-02-11T00:53:57.890Z,97170.23
2023-02-11T00:56:26.124Z,97170.33
2023-02-11T00:58:54.357Z,97166.54
2023-02-11T01:01:23.256Z,97160.31
2023-02-11T01:03:51.698Z,97156.05
2023-02-11T01:06:19.971Z,97159.31
2023-02-11T01:08:48.107Z,97160.21
2023-02-11T01:11:19.496Z,97156.79
2023-02-11T01:13:48.830Z,97147.39
2023-02-11T01:16:18.541Z,97139.90
2023-02-11T01:18:47.427Z,97138.36
2023-02-11T01:21:16.325Z,97133.11
2023-02-11T01:23:44.876Z,97128.52
2023-02-11T01:26:13.903Z,97129.35
2023-02-11T01:28:42.507Z,97123.33
2023-02-11T01:31:11.066Z,97121.11
2023-02-11T01:33:39.415Z,97116.79
2023-02-11T01:36:08.641Z,97109.05
2023-02-11T01:38:37.107Z,97108.46
2023-02-11T01:41:08.393Z,97110.36
2023-02-11T01:43:43.429Z,97107.71
2023-02-11T01:46:28.452Z,97109.27
2023-02-11T01:49:02.649Z,97105.23
2023-02-11T01:51:40.194Z,97105.97
2023-02-11T01:54:30.260Z,97104.41
2023-02-11T01:57:19.868Z,97103.66
2023-02-11T02:00:33.989Z,97102.30
2023-02-11T02:03:12.456Z,97108.23
2023-02-11T02:06:01.915Z,97107.03
2023-02-11T02:08:39.287Z,97108.26
2023-02-11T02:11:08.050Z,97106.72
2023-02-11T02:13:38.713Z,97101.55
2023-02-11T02:16:12.250Z,97097.86
2023-02-11T02:19:05.029Z,97092.23
2023-02-11T02:22:10.699Z,97088.46
2023-02-11T02:24:41.800Z,97085.02
2023-02-11T02:27:22.859Z,97079.48
2023-02-11T02:30:03.296Z,97075.63
2023-02-11T02:32:43.199Z,97071.04
2023-02-11T02:35:20.773Z,97065.35
2023-02-11T02:37:54.598Z,97063.80
2023-02-11T02:40:58.110Z,97065.40
2023-02-11T02:43:27.713Z,97057.99
2023-02-11T02:45:56.374Z,97057.23
2023-02-11T02:48:33.389Z,97057.00
2023-02-11T02:51:29.475Z,97063.56
2023-02-11T02:54:28.684Z,97063.98
2023-02-11T02:57:21.893Z,97065.55
2023-02-11T02:59:59.156Z,97058.94
2023-02-11T03:02:35.526Z,97059.06
2023-02-11T03:05:22.035Z,97055.42
2023-02-11T03:08:08.508Z,97060.93
2023-02-11T03:10:43.130Z,97060.02
2023-02-11T03:13:12.869Z,97060.47
2023-02-11T03:15:44.337Z,97064.66
2023-02-11T03:18:17.401Z,97060.79
2023-02-11T03:20:50.936Z,97060.80
2023-02-11T03:23:37.894Z,97059.78
2023-02-11T03:26:14.006Z,97059.56
2023-02-11T03:29:37.904Z,97061.80
2023-02-11T03:32:26.116Z,97058.73
2023-02-11T03:35:24.539Z,97058.88
2023-02-11T03:37:55.930Z,97060.70
2023-02-11T03:40:29.080Z,97062.71
2023-02-11T03:43:01.095Z,97056.55
2023-02-11T03:45:30.438Z,97063.23
2023-02-11T03:48:03.310Z,97063.81
2023-02-11T03:50:35.217Z,97059.77
2023-02-11T03:53:04.925Z,97057.83
2023-02-11T03:55:37.088Z,97052.11
2023-02-11T03:58:06.076Z,97047.68
2023-02-11T04:00:41.189Z,97043.11
2023-02-11T04:03:11.425Z,97039.98
2023-02-11T04:05:40.597Z,97038.39
2023-02-11T04:08:09.473Z,97030.10
2023-02-11T04:10:40.258Z,97021.81
2023-02-11T04:13:08.336Z,97019.89
2023-02-11T04:15:36.649Z,97017.98
2023-02-11T04:18:04.962Z,97016.17
2023-02-11T04:20:33.165Z,97011.42
2023-02-11T04:23:01.308Z,97009.88
2023-02-11T04:25:29.548Z,97003.92
2023-02-11T04:27:57.666Z,97007.02
2023-02-11T04:30:25.954Z,97004.98
2023-02-11T04:32:54.644Z,97000.31
2023-02-11T04:35:22.871Z,96999.39
2023-02-11T04:37:51.028Z,96999.43
2023-02-11T04:40:19.269Z,96999.30
2023-02-11T04:42:47.379Z,96998.50
2023-02-11T04:45:15.554Z,96995.88
2023-02-11T04:47:43.690Z,96992.12
2023-02-11T04:50:11.841Z,96999.23
2023-02-11T04:52:39.983Z,96996.06
2023-02-11T04:55:08.624Z,96994.88
2023-02-11T04:57:36.750Z,96996.79
2023-02-11T05:00:06.522Z,96995.12
2023-02-11T05:02:34.728Z,96999.59
2023-02-11T05:05:03.560Z,97003.12
2023-02-11T05:07:31.850Z,97004.10
2023-02-11T05:09:59.981Z,97003.14
2023-02-11T05:12:28.109Z,97002.28
2023-02-11T05:14:56.217Z,97001.17
2023-02-11T05:17:24.387Z,97004.89
2023-02-11T05:19:52.530Z,97007.21
2023-02-11T05:22:22.170Z,97010.17
2023-02-11T05:24:50.428Z,97005.77
2023-02-11T05:27:18.541Z,97005.13
2023-02-11T05:29:46.617Z,97003.78
2023-02-11T05:32:14.919Z,97000.86
2023-02-11T05:34:43.109Z,97000.00
2023-02-11T05:37:11.406Z,97000.39
2023-02-11T05:39:39.754Z,97003.10
2023-02-11T05:42:08.246Z,97002.34
2023-02-11T05:44:36.556Z,96997.45
2023-02-11T05:47:04.918Z,96998.59
2023-02-11T05:49:33.241Z,96991.44
2023-02-11T05:52:01.610Z,96991.67
2023-02-11T05:54:29.852Z,96988.55
2023-02-11T05:56:58.151Z,96987.55
2023-02-11T05:59:26.555Z,96986.60
2023-02-11T06:01:55.001Z,96986.09
2023-02-11T06:04:23.322Z,96983.88
2023-02-11T06:06:51.497Z,96982.33
2023-02-11T06:09:19.709Z,96983.45
2023-02-11T06:11:47.867Z,96981.09
2023-02-11T06:14:15.949Z,96976.41
2023-02-11T06:16:44.119Z,96973.50
2023-02-11T06:19:12.877Z,96972.94
2023-02-11T06:21:44.267Z,96969.27
2023-02-11T06:24:12.912Z,96969.77
2023-02-11T06:26:41.196Z,96970.92
2023-02-11T06:29:09.711Z,96968.91
2023-02-11T06:31:39.296Z,96960.40
2023-02-11T06:34:09.502Z,96961.20
2023-02-11T06:36:41.012Z,96959.83
2023-02-11T06:39:10.572Z,96956.36
2023-02-11T06:41:38.763Z,96954.32
2023-02-11T06:44:07.576Z,96955.69
2023-02-11T06:46:35.991Z,96955.52
2023-02-11T06:49:04.232Z,96952.78
2023-02-11T06:51:32.362Z,96949.34
2023-02-11T06:54:00.464Z,96948.46
2023-02-11T06:56:28.738Z,96954.46
2023-02-11T06:58:57.351Z,96956.69
2023-02-11T07:01:27.090Z,96955.85
2023-02-11T07:03:55.264Z,96956.15
2023-02-11T07:06:28.089Z,96955.23
2023-02-11T07:08:56.704Z,96954.43
2023-02-11T07:11:28.378Z,96951.50
2023-02-11T07:14:02.178Z,96950.08
2023-02-11T07:16:32.436Z,96951.33
2023-02-11T07:19:01.300Z,96951.03
2023-02-11T07:21:29.603Z,96948.04
2023-02-11T07:23:57.827Z,96945.63
2023-02-11T07:26:26.135Z,96943.63
2023-02-11T07:28:54.457Z,96937.90
2023-02-11T07:31:27.696Z,96941.46
2023-02-11T07:33:58.280Z,96935.23
2023-02-11T07:36:28.012Z,96936.10
2023-02-11T07:38:56.544Z,96936.17
2023-02-11T07:41:27.446Z,96934.84
2023-02-11T07:43:55.904Z,96931.85
2023-02-11T07:46:27.178Z,96933.74
2023-02-11T07:48:55.821Z,96932.75
2023-02-11T07:51:29.530Z,96929.17
2023-02-11T07:53:59.739Z,96918.30
2023-02-11T07:56:29.112Z,96914.24
2023-02-11T07:59:01.165Z,96909.17
2023-02-11T08:01:30.871Z,96897.91
2023-02-11T08:04:00.931Z,96896.48
2023-02-11T08:06:31.848Z,96889.71
2023-02-11T08:09:07.109Z,96873.10
2023-02-11T08:11:35.593Z,96867.42
2023-02-11T08:14:03.741Z,96858.86
2023-02-11T08:16:34.555Z,96855.63
2023-02-11T08:19:06.959Z,96853.12
2023-02-11T08:21:35.394Z,96851.56
2023-02-11T08:24:03.875Z,96853.48
2023-02-11T08:26:35.039Z,96853.65
2023-02-11T08:29:08.661Z,96852.64
2023-02-11T08:31:40.103Z,96846.05
2023-02-11T08:34:10.198Z,96838.32
2023-02-11T08:36:40.193Z,96838.34
2023-02-11T08:39:19.517Z,96839.79
2023-02-11T08:41:52.395Z,96835.39
2023-02-11T08:44:21.774Z,96829.55
2023-02-11T08:46:51.165Z,96830.15
2023-02-11T08:49:19.873Z,96823.53
2023-02-11T08:51:48.517Z,96824.25
2023-02-11T08:54:17.110Z,96826.56
2023-02-11T08:56:45.712Z,96822.83
2023-02-11T08:59:15.564Z,96818.60
2023-02-11T09:01:44.548Z,96816.35
2023-02-11T09:04:13.187Z,96825.09
2023-02-11T09:06:41.855Z,96816.02
2023-02-11T09:09:15.190Z,96822.08
2023-02-11T09:11:44.981Z,96819.73
2023-02-11T09:14:19.998Z,96820.00
2023-02-11T09:16:49.175Z,96821.79
2023-02-11T09:19:18.656Z,96818.77
2023-02-11T09:21:47.288Z,96816.89
2023-02-11T09:24:15.806Z,96811.85
2023-02-11T09:26:44.231Z,96812.23
2023-02-11T09:29:12.587Z,96811.32
2023-02-11T09:31:40.866Z,96804.70
2023-02-11T09:34:09.618Z,96796.92
2023-02-11T09:36:40.373Z,96794.89
2023-02-11T09:39:17.736Z,96799.79
2023-02-11T09:41:59.895Z,96801.47
2023-02-11T09:44:31.981Z,96810.57
2023-02-11T09:47:03.572Z,96812.80
2023-02-11T09:49:47.126Z,96807.67
2023-02-11T09:52:30.207Z,96812.63
2023-02-11T09:55:05.005Z,96806.60
2023-02-11T09:57:36.030Z,96799.56
2023-02-11T10:00:19.703Z,96803.53
2023-02-11T10:03:29.767Z,96805.22
2023-02-11T10:06:04.045Z,96799.11
2023-02-11T10:09:02.796Z,96787.55
2023-02-11T10:11:58.262Z,96781.91
2023-02-11T10:14:26.542Z,96776.16
2023-02-11T10:17:26.055Z,96781.59
2023-02-11T10:20:11.697Z,96785.31
2023-02-11T10:22:39.676Z,96782.56
2023-02-11T10:25:27.919Z,96776.95
2023-02-11T10:27:59.708Z,96777.47
2023-02-11T10:30:39.031Z,96771.58
2023-02-11T10:33:17.601Z,96752.89
2023-02-11T10:35:46.224Z,96746.50
2023-02-11T10:38:14.597Z,96749.00
2023-02-11T10:40:43.240Z,96739.23
2023-02-11T10:43:14.265Z,96736.47
2023-02-11T10:45:50.012Z,96736.21
2023-02-11T10:48:51.713Z,96737.77
2023-02-11T10:51:25.752Z,96738.45
2023-02-11T10:54:13.816Z,96731.23
2023-02-11T10:56:50.601Z,96729.77
2023-02-11T10:59:33.289Z,96723.39
2023-02-11T11:02:06.112Z,96717.79
2023-02-11T11:04:39.770Z,96710.48
2023-02-11T11:07:12.928Z,96701.05
2023-02-11T11:10:06.572Z,96692.95
2023-02-11T11:12:48.837Z,96688.58
2023-02-11T11:15:21.900Z,96689.61
2023-02-11T11:17:51.596Z,96691.04
2023-02-11T11:20:33.668Z,96689.02
2023-02-11T11:23:20.479Z,96685.58
2023-02-11T11:26:18.343Z,96686.95
2023-02-11T11:28:49.539Z,96680.71
2023-02-11T11:31:24.734Z,96685.15
2023-02-11T11:33:55.835Z,96685.54
2023-02-11T11:36:35.128Z,96682.44
2023-02-11T11:39:25.742Z,96666.02
2023-02-11T11:42:05.974Z,96658.09
2023-02-11T11:44:36.295Z,96650.64
2023-02-11T11:47:16.544Z,96647.64
2023-02-11T11:49:56.784Z,96650.49
2023-02-11T11:52:40.265Z,96657.36
2023-02-11T11:55:19.913Z,96647.91
2023-02-11T11:57:48.961Z,96649.00
2023-02-11T12:00:21.238Z,96648.65
2023-02-11T12:02:52.146Z,96648.34
2023-02-11T12:05:37.751Z,96645.66
2023-02-11T12:08:31.405Z,96642.20
2023-02-11T12:11:14.764Z,96634.80
2023-02-11T12:13:58.100Z,96630.71
2023-02-11T12:17:01.593Z,96627.06
2023-02-11T12:20:14.343Z,96618.11
2023-02-11T12:22:48.847Z,96609.77
2023-02-11T12:25:28.096Z,96609.13
2023-02-11T12:28:15.483Z,96608.90
2023-02-11T12:31:11.351Z,96607.30
2023-02-11T12:34:01.029Z,96601.48
2023-02-11T12:36:54.506Z,96606.19
2023-02-11T12:39:22.590Z,96601.42
2023-02-11T12:42:54.862Z,96602.34
2023-02-11T12:45:29.692Z,96598.99
2023-02-11T12:48:03.907Z,96598.48
2023-02-11T12:50:38.990Z,96599.70
2023-02-11T12:53:32.449Z,96595.28
2023-02-11T12:56:16.731Z,96592.48
2023-02-11T12:58:47.794Z,96590.67
2023-02-11T13:01:34.444Z,96588.00
2023-02-11T13:04:16.606Z,96586.36
2023-02-11T13:06:57.716Z,96581.27
2023-02-11T13:09:32.310Z,96577.10
2023-02-11T13:12:23.765Z,96571.67
2023-02-11T13:14:57.005Z,96563.65
2023-02-11T13:17:34.569Z,96563.58
2023-02-11T13:20:36.995Z,96561.53
2023-02-11T13:23:16.670Z,96561.21
2023-02-11T13:25:58.345Z,96554.13
2023-02-11T13:28:36.714Z,96554.29
2023-02-11T13:31:07.947Z,96550.52
2023-02-11T13:33:43.351Z,96550.42
2023-02-11T13:36:13.360Z,96555.97
2023-02-11T13:38:51.442Z,96553.15
2023-02-11T13:41:27.481Z,96548.35
2023-02-11T13:44:04.998Z,96548.54
2023-02-11T13:47:02.563Z,96551.07
2023-02-11T13:49:33.423Z,96554.61
2023-02-11T13:52:05.635Z,96552.67
2023-02-11T13:54:38.258Z,96546.06
2023-02-11T13:57:31.240Z,96542.38
2023-02-11T14:00:02.512Z,96541.88
2023-02-11T14:02:57.086Z,96544.00
2023-02-11T14:05:52.017Z,96536.52
2023-02-11T14:08:41.931Z,96526.69
2023-02-11T14:11:32.834Z,96520.59
2023-02-11T14:14:24.074Z,96514.55
2023-02-11T14:17:00.985Z,96511.47
2023-02-11T14:19:46.079Z,96514.66
2023-02-11T14:22:18.731Z,96515.16
2023-02-11T14:24:54.102Z,96510.21
2023-02-11T14:27:35.679Z,96504.68
2023-02-11T14:30:40.704Z,96503.00
2023-02-11T14:33:20.575Z,96493.61
2023-02-11T14:35:54.749Z,96496.37
2023-02-11T14:38:31.708Z,96501.26
2023-02-11T14:41:29.648Z,96506.60
2023-02-11T14:44:02.092Z,96504.27
2023-02-11T14:46:33.046Z,96504.21
2023-02-11T14:49:05.440Z,96501.02
2023-02-11T14:51:39.888Z,96503.08
2023-02-11T14:54:19.212Z,96501.41
2023-02-11T14:56:47.392Z,96507.45
2023-02-11T14:59:22.136Z,96512.65
2023-02-11T15:01:54.415Z,96514.86
2023-02-11T15:04:27.334Z,96522.64
2023-02-11T15:06:57.622Z,96521.09
2023-02-11T15:09:42.481Z,96517.50
2023-02-11T15:12:26.463Z,96516.80
2023-02-11T15:15:00.380Z,96520.41
2023-02-11T15:17:32.237Z,96522.64
2023-02-11T15:20:02.653Z,96523.02
2023-02-11T15:22:36.560Z,96519.79
2023-02-11T15:25:08.375Z,96521.33
2023-02-11T15:27:45.710Z,96521.04
2023-02-11T15:30:23.134Z,96507.40
2023-02-11T15:33:00.118Z,96494.82
2023-02-11T15:35:42.891Z,96487.40
2023-02-11T15:38:13.525Z,96480.48
2023-02-11T15:40:58.620Z,96485.27
2023-02-11T15:43:48.450Z,96481.27
2023-02-11T15:46:24.218Z,96472.84
2023-02-11T15:48:54.378Z,96473.89
2023-02-11T15:51:53.587Z,96473.11
2023-02-11T15:54:26.904Z,96467.14
2023-02-11T15:57:02.734Z,96472.41
2023-02-11T15:59:38.443Z,96470.19
2023-02-11T16:02:18.829Z,96466.48
2023-02-11T16:04:56.392Z,96466.39
2023-02-11T16:07:49.885Z,96472.17
2023-02-11T16:10:27.274Z,96474.70
2023-02-11T16:13:03.178Z,96474.13
2023-02-11T16:15:34.110Z,96468.45
2023-02-11T16:18:05.860Z,96465.34
2023-02-11T16:20:34.361Z,96466.20
2023-02-11T16:23:04.569Z,96475.98
2023-02-11T16:25:35.503Z,96491.19
2023-02-11T16:28:03.928Z,96503.77
2023-02-11T16:30:40.681Z,96507.96
2023-02-11T16:33:11.576Z,96496.18
2023-02-11T16:35:40.629Z,96500.81
2023-02-11T16:38:08.789Z,96504.65
2023-02-11T16:40:37.409Z,96498.19
2023-02-11T16:43:05.561Z,96490.70
2023-02-11T16:45:38.926Z,96490.40
2023-02-11T16:48:09.424Z,96494.38
2023-02-11T16:50:38.039Z,96496.63
2023-02-11T16:53:06.522Z,96500.03
2023-02-11T16:55:35.264Z,96507.27
2023-02-11T16:58:03.400Z,96514.81
2023-02-11T17:00:31.503Z,96511.90
2023-02-11T17:02:59.859Z,96510.26
2023-02-11T17:05:28.139Z,96501.74
2023-02-11T17:07:56.280Z,96501.33
2023-02-11T17:10:24.657Z,96508.98
2023-02-11T17:12:53.554Z,96495.12
2023-02-11T17:15:21.759Z,96485.74
2023-02-11T17:17:49.860Z,96477.38
2023-02-11T17:20:18.333Z,96478.43
2023-02-11T17:22:46.625Z,96473.16
2023-02-11T17:25:14.923Z,96466.98
2023-02-11T17:27:43.183Z,96466.94
2023-02-11T17:30:13.423Z,96461.23
2023-02-11T17:32:41.703Z,96466.77
2023-02-11T17:35:09.993Z,96479.98
2023-02-11T17:37:38.335Z,96470.88
2023-02-11T17:40:08.225Z,96465.33
2023-02-11T17:42:36.324Z,96463.59
2023-02-11T17:45:04.863Z,96464.41
2023-02-11T17:47:33.144Z,96468.48
2023-02-11T17:50:03.120Z,96473.39
2023-02-11T17:52:31.409Z,96474.20
2023-02-11T17:54:59.561Z,96482.73
2023-02-11T17:57:27.751Z,96486.83
2023-02-11T17:59:56.004Z,96490.73
2023-02-11T18:02:24.316Z,96491.12
2023-02-11T18:04:53.454Z,96483.27
2023-02-11T18:07:21.726Z,96468.90
2023-02-11T18:09:49.925Z,96459.84
2023-02-11T18:12:25.319Z,96472.65
2023-02-11T18:14:57.885Z,96482.34
2023-02-11T18:17:26.434Z,96487.20
2023-02-11T18:19:57.767Z,96479.92
2023-02-11T18:22:26.099Z,96486.21
2023-02-11T18:24:55.219Z,96488.38
2023-02-11T18:27:23.392Z,96489.86
2023-02-11T18:29:51.584Z,96498.41
2023-02-11T18:32:19.681Z,96484.70
2023-02-11T18:34:47.848Z,96477.67
2023-02-11T18:37:16.452Z,96481.64
2023-02-11T18:39:44.551Z,96484.37
2023-02-11T18:42:12.705Z,96482.98
2023-02-11T18:44:40.938Z,96475.77
2023-02-11T18:47:09.189Z,96474.40
2023-02-11T18:49:37.409Z,96479.76
2023-02-11T18:52:05.682Z,96471.14
2023-02-11T18:54:33.764Z,96455.89
2023-02-11T18:57:01.882Z,96463.31
2023-02-11T18:59:30.241Z,96473.58
2023-02-11T19:01:58.402Z,96468.24
2023-02-11T19:04:26.596Z,96463.91
2023-02-11T19:06:54.722Z,96456.77
2023-02-11T19:09:22.768Z,96450.38
2023-02-11T19:11:51.009Z,96451.00
2023-02-11T19:14:25.203Z,96457.66
2023-02-11T19:16:55.948Z,96449.23
2023-02-11T19:19:28.080Z,96456.15
2023-02-11T19:21:57.525Z,96457.84
2023-02-11T19:24:27.366Z,96454.20
2023-02-11T19:26:58.646Z,96454.67
2023-02-11T19:29:28.093Z,96454.89
2023-02-11T19:31:56.262Z,96454.09
2023-02-11T19:34:24.445Z,96450.86
2023-02-11T19:36:54.321Z,96447.63
2023-02-11T19:39:24.855Z,96442.26
2023-02-11T19:41:53.475Z,96439.98
2023-02-11T19:44:21.745Z,96439.59
2023-02-11T19:46:52.835Z,96441.79
2023-02-11T19:49:24.601Z,96439.73
2023-02-11T19:51:55.434Z,96439.08
2023-02-11T19:54:26.561Z,96441.89
2023-02-11T19:56:55.350Z,96443.51
2023-02-11T19:59:23.564Z,96443.16
2023-02-11T20:01:53.325Z,96445.84
2023-02-11T20:04:21.695Z,96443.16
2023-02-11T20:06:49.986Z,96441.39
2023-02-11T20:09:18.272Z,96438.83
2023-02-11T20:11:46.572Z,96436.09
2023-02-11T20:14:15.573Z,96433.35
2023-02-11T20:16:49.312Z,96432.54
2023-02-11T20:19:21.661Z,96432.04
2023-02-11T20:21:53.146Z,96421.69
2023-02-11T20:24:22.330Z,96413.80
2023-02-11T20:26:55.498Z,96407.07
2023-02-11T20:29:24.820Z,96405.68
2023-02-11T20:31:54.021Z,96396.52
2023-02-11T20:34:22.839Z,96387.56
2023-02-11T20:36:54.957Z,96374.13
2023-02-11T20:39:25.780Z,96369.43
2023-02-11T20:41:54.666Z,96355.76
2023-02-11T20:44:23.595Z,96362.04
2023-02-11T20:46:53.926Z,96359.88
2023-02-11T20:49:24.532Z,96364.44
2023-02-11T20:51:54.051Z,96363.17
2023-02-11T20:54:24.167Z,96371.83
2023-02-11T20:56:54.030Z,96373.43
2023-02-11T20:59:22.818Z,96368.04
2023-02-11T21:01:55.578Z,96358.86
2023-02-11T21:04:26.800Z,96360.36
2023-02-11T21:06:58.632Z,96358.23
2023-02-11T21:09:31.307Z,96355.58
2023-02-11T21:11:59.947Z,96357.80
2023-02-11T21:14:28.559Z,96365.17
2023-02-11T21:16:57.681Z,96358.94
2023-02-11T21:19:26.313Z,96354.13
2023-02-11T21:21:55.388Z,96345.34
2023-02-11T21:24:24.008Z,96345.65
2023-02-11T21:26:52.121Z,96343.03
2023-02-11T21:29:20.569Z,96346.59
2023-02-11T21:31:48.933Z,96353.26
2023-02-11T21:34:17.281Z,96354.42
2023-02-11T21:36:45.496Z,96350.59
2023-02-11T21:39:17.531Z,96346.05
2023-02-11T21:41:45.756Z,96344.02
2023-02-11T21:44:13.899Z,96338.52
2023-02-11T21:46:42.102Z,96344.40
2023-02-11T21:49:10.466Z,96351.80
2023-02-11T21:51:39.612Z,96340.98
2023-02-11T21:54:07.733Z,96342.20
2023-02-11T21:56:36.708Z,96340.53
2023-02-11T21:59:04.947Z,96342.41
2023-02-11T22:01:35.460Z,96348.58
2023-02-11T22:04:04.286Z,96343.18
2023-02-11T22:06:34.900Z,96342.38
2023-02-11T22:09:06.944Z,96344.00
2023-02-11T22:11:35.611Z,96348.35
2023-02-11T22:14:03.956Z,96347.91
2023-02-11T22:16:32.625Z,96344.23
2023-02-11T22:19:02.583Z,96343.56
2023-02-11T22:21:31.075Z,96343.64
2023-02-11T22:23:59.365Z,96342.19
2023-02-11T22:26:28.414Z,96342.23
2023-02-11T22:28:57.200Z,96338.91
2023-02-11T22:31:29.223Z,96340.42
2023-02-11T22:33:59.057Z,96343.64
2023-02-11T22:36:30.792Z,96346.33
2023-02-11T22:39:04.948Z,96344.27
2023-02-11T22:41:33.378Z,96341.85
2023-02-11T22:44:01.492Z,96345.30
2023-02-11T22:46:29.878Z,96349.08
2023-02-11T22:48:58.145Z,96340.41
2023-02-11T22:51:29.038Z,96345.05
2023-02-11T22:54:06.056Z,96341.79
2023-02-11T22:56:35.362Z,96348.71
2023-02-11T22:59:06.709Z,96348.39
2023-02-11T23:01:35.558Z,96355.11
2023-02-11T23:04:06.511Z,96351.02
2023-02-11T23:06:35.463Z,96351.45
2023-02-11T23:09:05.353Z,96345.89
2023-02-11T23:11:33.627Z,96342.74
2023-02-11T23:14:03.322Z,96345.42
2023-02-11T23:16:33.644Z,96343.63
2023-02-11T23:19:06.277Z,96342.79
2023-02-11T23:21:37.263Z,96344.67
2023-02-11T23:24:08.943Z,96346.74
2023-02-11T23:26:39.853Z,96345.29
2023-02-11T23:29:08.826Z,96348.08
2023-02-11T23:31:40.557Z,96344.69
2023-02-11T23:34:09.421Z,96345.64
2023-02-11T23:36:38.133Z,96346.54
2023-02-11T23:39:06.407Z,96343.55
2023-02-11T23:41:34.725Z,96347.11
2023-02-11T23:44:03.013Z,96347.01
2023-02-11T23:46:31.387Z,96347.55
2023-02-11T23:48:59.692Z,96348.10
2023-02-11T23:51:27.887Z,96347.54
2023-02-11T23:53:57.224Z,96344.25
2023-02-11T23:56:28.203Z,96343.11
2023-02-11T23:58:57.887Z,96345.70
